createdAt,value
2023-01-20T07:23:34.839Z,16.45
2023-01-20T07:26:04.103Z,13.90
2023-01-20T07:28:32.872Z,17.50
2023-01-20T07:31:05.405Z,16.40
2023-01-20T07:33:33.928Z,18.00
2023-01-20T07:36:02.380Z,14.83
2023-01-20T07:38:30.953Z,14.07
2023-01-20T07:41:03.473Z,14.27
2023-01-20T07:43:33.467Z,18.13
2023-01-20T07:46:03.330Z,16.10
2023-01-20T07:48:32.898Z,15.30
2023-01-20T07:51:03.376Z,14.33
2023-01-20T07:53:31.895Z,14.20
2023-01-20T07:56:03.516Z,15.93
2023-01-20T07:58:31.721Z,16.50
2023-01-20T08:01:06.860Z,13.63
2023-01-20T08:03:34.946Z,16.13
2023-01-20T08:06:03.902Z,14.80
2023-01-20T08:08:32.866Z,13.90
2023-01-20T08:11:02.671Z,12.00
2023-01-20T08:13:31.440Z,12.50
2023-01-20T08:16:02.098Z,15.23
2023-01-20T08:18:30.982Z,11.17
2023-01-20T08:20:59.958Z,14.67
2023-01-20T08:23:28.042Z,12.70
2023-01-20T08:25:59.975Z,15.73
2023-01-20T08:28:29.597Z,16.97
2023-01-20T08:31:05.122Z,10.93
2023-01-20T08:33:33.775Z,14.00
2023-01-20T08:36:06.650Z,11.40
2023-01-20T08:38:35.179Z,14.87
2023-01-20T08:41:03.696Z,12.83
2023-01-20T08:43:33.066Z,10.30
2023-01-20T08:46:01.747Z,13.47
2023-01-20T08:48:30.112Z,15.60
2023-01-20T08:50:58.280Z,12.03
2023-01-20T08:53:26.620Z,16.27
2023-01-20T08:55:59.008Z,16.20
2023-01-20T08:58:27.864Z,15.07
2023-01-20T09:00:57.395Z,12.20
2023-01-20T09:03:26.033Z,14.53
2023-01-20T09:05:54.128Z,13.20
2023-01-20T09:08:22.454Z,12.70
2023-01-20T09:10:50.483Z,13.00
2023-01-20T09:13:18.747Z,14.00
2023-01-20T09:15:52.749Z,13.03
2023-01-20T09:18:22.677Z,10.60
2023-01-20T09:20:50.878Z,11.40
2023-01-20T09:23:19.030Z,11.00
2023-01-20T09:25:46.919Z,11.50
2023-01-20T09:28:15.006Z,12.90
2023-01-20T09:30:43.749Z,11.43
2023-01-20T09:33:12.533Z,13.70
2023-01-20T09:35:41.823Z,15.30
2023-01-20T09:38:28.580Z,16.40
2023-01-20T09:41:24.369Z,18.00
2023-01-20T09:43:59.912Z,12.80
2023-01-20T09:46:44.174Z,11.33
2023-01-20T09:49:39.945Z,12.60
2023-01-20T09:52:31.750Z,12.85
2023-01-20T09:55:05.900Z,8.20
2023-01-20T09:57:40.565Z,10.18
2023-01-20T10:00:14.506Z,11.23
2023-01-20T10:02:45.795Z,11.55
2023-01-20T10:05:19.615Z,10.80
2023-01-20T10:07:55.570Z,10.90
2023-01-20T10:10:26.338Z,8.23
2023-01-20T10:13:03.346Z,13.00
2023-01-20T10:15:34.244Z,8.68
2023-01-20T10:18:06.198Z,10.33
2023-01-20T10:20:40.329Z,13.00
2023-01-20T10:23:12.342Z,8.70
2023-01-20T10:25:45.276Z,7.07
2023-01-20T10:28:16.467Z,9.00
2023-01-20T10:30:47.333Z,8.67
2023-01-20T10:33:21.038Z,10.83
2023-01-20T10:35:53.354Z,8.20
2023-01-20T10:38:29.638Z,9.30
2023-01-20T10:41:04.833Z,9.97
2023-01-20T10:43:32.992Z,14.20
2023-01-20T10:46:16.556Z,10.00
2023-01-20T10:49:06.959Z,7.97
2023-01-20T10:51:40.191Z,7.87
2023-01-20T10:54:22.356Z,6.13
2023-01-20T10:56:54.470Z,7.40
2023-01-20T10:59:29.442Z,6.90
2023-01-20T11:02:11.347Z,5.33
2023-01-20T11:04:40.841Z,6.63
2023-01-20T11:07:17.693Z,6.97
2023-01-20T11:09:49.297Z,5.63
2023-01-20T11:12:21.377Z,5.43
2023-01-20T11:14:49.941Z,5.50
2023-01-20T11:17:20.484Z,5.07
2023-01-20T11:19:51.107Z,6.17
2023-01-20T11:22:27.030Z,9.80
2023-01-20T11:24:59.608Z,8.90
2023-01-20T11:27:30.766Z,7.70
2023-01-20T11:30:02.161Z,6.30
2023-01-20T11:32:35.559Z,5.37
2023-01-20T11:35:20.453Z,6.20
2023-01-20T11:37:48.681Z,5.23
2023-01-20T11:40:24.413Z,6.40
2023-01-20T11:42:54.264Z,7.32
2023-01-20T11:45:28.971Z,6.13
2023-01-20T11:48:07.903Z,8.23
2023-01-20T11:50:41.599Z,8.63
2023-01-20T11:53:14.977Z,7.27
2023-01-20T11:55:50.203Z,8.70
2023-01-20T11:58:21.150Z,6.47
2023-01-20T12:00:52.106Z,9.60
2023-01-20T12:04:00.360Z,12.43
2023-01-20T12:06:32.225Z,8.23
2023-01-20T12:09:05.933Z,8.43
2023-01-20T12:11:38.312Z,8.50
2023-01-20T12:14:23.244Z,12.40
2023-01-20T12:17:09.731Z,8.60
2023-01-20T12:19:49.784Z,8.57
2023-01-20T12:22:23.550Z,7.10
2023-01-20T12:25:10.983Z,9.57
2023-01-20T12:27:46.598Z,7.97
2023-01-20T12:30:39.306Z,10.20
2023-01-20T12:33:17.265Z,9.20
2023-01-20T12:36:03.019Z,12.30
2023-01-20T12:38:38.435Z,11.27
2023-01-20T12:41:14.864Z,10.97
2023-01-20T12:43:56.990Z,12.60
2023-01-20T12:46:37.350Z,9.90
2023-01-20T12:49:40.695Z,12.00
2023-01-20T12:52:23.491Z,15.20
2023-01-20T12:55:13.639Z,16.80
2023-01-20T12:57:52.662Z,15.60
2023-01-20T13:00:49.020Z,14.07
2023-01-20T13:03:46.688Z,16.87
2023-01-20T13:06:39.643Z,19.73
2023-01-20T13:09:19.969Z,17.90
2023-01-20T13:12:00.058Z,14.80
2023-01-20T13:14:40.748Z,22.07
2023-01-20T13:17:19.387Z,20.23
2023-01-20T13:19:49.233Z,15.90
2023-01-20T13:22:20.407Z,17.87
2023-01-20T13:24:51.471Z,17.90
2023-01-20T13:27:26.539Z,17.10
2023-01-20T13:29:57.155Z,18.60
2023-01-20T13:32:34.902Z,20.03
2023-01-20T13:35:12.405Z,18.50
2023-01-20T13:37:40.601Z,19.10
2023-01-20T13:40:45.610Z,22.60
2023-01-20T13:43:38.803Z,17.33
2023-01-20T13:46:38.695Z,23.67
2023-01-20T13:49:22.908Z,20.07
2023-01-20T13:51:51.537Z,19.93
2023-01-20T13:54:38.941Z,20.77
2023-01-20T13:57:46.742Z,18.17
2023-01-20T14:00:17.406Z,20.47
2023-01-20T14:02:46.796Z,26.77
2023-01-20T14:05:29.170Z,20.90
2023-01-20T14:07:57.813Z,22.37
2023-01-20T14:10:26.239Z,17.90
2023-01-20T14:12:54.417Z,24.67
2023-01-20T14:15:28.841Z,23.00
2023-01-20T14:17:58.741Z,23.27
2023-01-20T14:20:29.763Z,24.67
2023-01-20T14:23:29.672Z,23.17
2023-01-20T14:26:03.707Z,23.03
2023-01-20T14:28:32.927Z,20.83
2023-01-20T14:31:14.199Z,19.40
2023-01-20T14:33:51.850Z,22.97
2023-01-20T14:36:23.945Z,22.70
2023-01-20T14:38:58.498Z,18.67
2023-01-20T14:41:48.018Z,24.50
2023-01-20T14:44:21.001Z,21.13
2023-01-20T14:46:51.033Z,22.60
2023-01-20T14:49:21.284Z,21.03
2023-01-20T14:51:51.961Z,20.80
2023-01-20T14:54:31.070Z,23.30
2023-01-20T14:57:00.202Z,27.90
2023-01-20T14:59:28.265Z,21.07
2023-01-20T15:02:00.932Z,25.37
2023-01-20T15:04:36.537Z,25.80
2023-01-20T15:07:06.521Z,24.10
2023-01-20T15:09:35.966Z,23.40
2023-01-20T15:12:36.155Z,20.97
2023-01-20T15:15:18.483Z,21.93
2023-01-20T15:18:24.474Z,20.23
2023-01-20T15:21:11.660Z,23.37
2023-01-20T15:23:46.111Z,19.17
2023-01-20T15:26:25.197Z,24.93
2023-01-20T15:28:53.159Z,26.10
2023-01-20T15:31:21.236Z,28.73
2023-01-20T15:33:49.665Z,24.60
2023-01-20T15:36:23.854Z,24.90
2023-01-20T15:38:53.253Z,24.33
2023-01-20T15:41:21.690Z,26.93
2023-01-20T15:43:52.489Z,24.43
2023-01-20T15:46:20.752Z,23.83
2023-01-20T15:48:48.714Z,26.30
2023-01-20T15:51:18.746Z,30.60
2023-01-20T15:53:47.621Z,26.33
2023-01-20T15:56:20.956Z,24.97
2023-01-20T15:58:49.918Z,25.53
2023-01-20T16:01:19.770Z,23.92
2023-01-20T16:03:48.142Z,23.77
2023-01-20T16:06:18.577Z,23.27
2023-01-20T16:08:48.748Z,26.10
2023-01-20T16:11:19.522Z,21.90
2023-01-20T16:13:47.846Z,26.10
2023-01-20T16:16:19.077Z,21.20
2023-01-20T16:18:48.088Z,23.93
2023-01-20T16:21:17.740Z,23.00
2023-01-20T16:23:46.159Z,24.13
2023-01-20T16:26:23.356Z,23.13
2023-01-20T16:28:51.569Z,35.43
2023-01-20T16:31:19.972Z,29.63
2023-01-20T16:33:48.365Z,20.30
2023-01-20T16:36:18.180Z,22.30
2023-01-20T16:38:47.013Z,27.70
2023-01-20T16:41:17.840Z,23.10
2023-01-20T16:43:47.384Z,28.13
2023-01-20T16:46:16.013Z,26.70
2023-01-20T16:48:44.250Z,31.57
2023-01-20T16:51:14.130Z,24.70
2023-01-20T16:53:42.594Z,26.13
2023-01-20T16:56:17.683Z,24.50
2023-01-20T16:58:50.255Z,24.03
2023-01-20T17:01:22.307Z,23.53
2023-01-20T17:03:51.551Z,24.48
2023-01-20T17:06:21.155Z,23.30
2023-01-20T17:08:51.216Z,23.77
2023-01-20T17:11:19.448Z,26.97
2023-01-20T17:13:49.562Z,23.33
2023-01-20T17:16:18.268Z,28.53
2023-01-20T17:18:50.036Z,27.73
2023-01-20T17:21:19.640Z,26.80
2023-01-20T17:23:50.804Z,22.23
2023-01-20T17:26:19.217Z,24.83
2023-01-20T17:28:49.359Z,25.23
2023-01-20T17:31:17.443Z,26.83
2023-01-20T17:33:47.075Z,25.30
2023-01-20T17:36:16.868Z,23.70
2023-01-20T17:38:45.547Z,23.10
2023-01-20T17:41:15.289Z,27.67
2023-01-20T17:43:46.013Z,31.03
2023-01-20T17:46:18.651Z,25.33
2023-01-20T17:48:47.621Z,29.30
2023-01-20T17:51:17.057Z,23.93
2023-01-20T17:53:45.261Z,26.70
2023-01-20T17:56:14.483Z,26.00
2023-01-20T17:58:43.720Z,29.07
2023-01-20T18:01:13.561Z,26.53
2023-01-20T18:03:43.685Z,28.08
2023-01-20T18:06:13.133Z,28.93
2023-01-20T18:08:41.650Z,32.53
2023-01-20T18:11:10.974Z,31.97
2023-01-20T18:13:39.477Z,29.17
2023-01-20T18:16:11.006Z,33.90
2023-01-20T18:18:39.514Z,36.13
2023-01-20T18:21:13.576Z,30.10
2023-01-20T18:23:42.444Z,31.13
2023-01-20T18:26:11.955Z,38.57
2023-01-20T18:28:39.842Z,36.00
2023-01-20T18:31:09.793Z,29.97
2023-01-20T18:33:40.032Z,29.77
2023-01-20T18:36:10.116Z,33.65
2023-01-20T18:38:43.257Z,24.40
2023-01-20T18:41:11.625Z,29.10
2023-01-20T18:43:40.266Z,32.60
2023-01-20T18:46:08.939Z,35.13
2023-01-20T18:48:39.760Z,33.00
2023-01-20T18:51:10.353Z,29.33
2023-01-20T18:53:39.664Z,28.33
2023-01-20T18:56:09.959Z,31.03
2023-01-20T18:58:39.651Z,27.15
2023-01-20T19:01:09.705Z,28.23
2023-01-20T19:03:38.656Z,27.83
2023-01-20T19:06:07.980Z,25.15
2023-01-20T19:08:36.121Z,26.88
2023-01-20T19:11:08.316Z,29.38
2023-01-20T19:13:37.007Z,25.80
2023-01-20T19:16:05.194Z,30.57
2023-01-20T19:18:33.256Z,28.17
2023-01-20T19:21:04.876Z,36.53
2023-01-20T19:23:32.932Z,26.00
2023-01-20T19:26:01.858Z,26.58
2023-01-20T19:28:31.486Z,24.53
2023-01-20T19:31:06.348Z,24.97
2023-01-20T19:33:34.803Z,28.42
2023-01-20T19:36:05.007Z,27.85
2023-01-20T19:38:34.249Z,25.43
2023-01-20T19:41:05.928Z,27.43
2023-01-20T19:43:36.118Z,24.83
2023-01-20T19:46:04.584Z,28.17
2023-01-20T19:48:33.122Z,29.03
2023-01-20T19:51:04.964Z,24.33
2023-01-20T19:53:33.747Z,29.23
2023-01-20T19:56:02.686Z,26.30
2023-01-20T19:58:30.830Z,25.13
2023-01-20T20:01:08.072Z,26.70
2023-01-20T20:03:36.664Z,31.20
2023-01-20T20:06:06.468Z,26.57
2023-01-20T20:08:36.149Z,30.80
2023-01-20T20:11:04.561Z,25.70
2023-01-20T20:13:32.963Z,23.87
2023-01-20T20:16:02.092Z,24.83
2023-01-20T20:18:31.477Z,24.83
2023-01-20T20:20:59.944Z,29.30
2023-01-20T20:23:27.966Z,31.43
2023-01-20T20:25:57.177Z,25.43
2023-01-20T20:28:25.454Z,23.97
2023-01-20T20:30:55.517Z,31.87
2023-01-20T20:33:24.230Z,29.37
2023-01-20T20:35:53.523Z,28.67
2023-01-20T20:38:21.496Z,33.00
2023-01-20T20:40:49.554Z,29.23
2023-01-20T20:43:17.555Z,22.77
2023-01-20T20:45:45.435Z,30.53
2023-01-20T20:48:13.517Z,28.50
2023-01-20T20:50:41.447Z,29.50
2023-01-20T20:53:10.997Z,31.07
2023-01-20T20:55:40.715Z,29.47
2023-01-20T20:58:09.248Z,27.27
2023-01-20T21:00:38.099Z,29.13
2023-01-20T21:03:07.799Z,23.98
2023-01-20T21:05:36.552Z,25.30
2023-01-20T21:08:06.006Z,30.60
2023-01-20T21:10:35.467Z,27.87
2023-01-20T21:13:06.897Z,24.33
2023-01-20T21:15:35.204Z,24.70
2023-01-20T21:18:03.167Z,29.93
2023-01-20T21:20:32.694Z,27.40
2023-01-20T21:23:01.910Z,33.23
2023-01-20T21:25:29.920Z,27.00
2023-01-20T21:27:59.157Z,28.03
2023-01-20T21:30:27.250Z,29.10
2023-01-20T21:32:55.136Z,27.87
2023-01-20T21:35:23.003Z,28.43
2023-01-20T21:37:51.607Z,34.10
2023-01-20T21:40:19.596Z,32.50
2023-01-20T21:42:47.569Z,28.37
2023-01-20T21:45:16.489Z,25.95
2023-01-20T21:47:44.382Z,21.80
2023-01-20T21:50:30.131Z,32.03
2023-01-20T21:52:58.052Z,28.60
2023-01-20T21:55:26.022Z,30.20
2023-01-20T21:57:54.249Z,28.60
2023-01-20T22:00:24.197Z,30.43
2023-01-20T22:02:52.102Z,28.50
2023-01-20T22:05:20.269Z,25.95
2023-01-20T22:07:48.987Z,26.87
2023-01-20T22:10:17.811Z,25.07
2023-01-20T22:12:46.059Z,25.77
2023-01-20T22:15:14.009Z,25.03
2023-01-20T22:17:43.324Z,27.00
2023-01-20T22:20:12.501Z,26.20
2023-01-20T22:22:40.431Z,27.03
2023-01-20T22:25:09.113Z,29.23
2023-01-20T22:27:36.974Z,29.43
2023-01-20T22:30:05.330Z,28.92
2023-01-20T22:32:33.441Z,29.13
2023-01-20T22:35:02.738Z,27.27
2023-01-20T22:37:32.294Z,32.07
2023-01-20T22:40:02.116Z,26.10
2023-01-20T22:42:30.051Z,24.63
2023-01-20T22:44:57.967Z,34.53
2023-01-20T22:47:26.021Z,30.20
2023-01-20T22:49:56.609Z,27.43
2023-01-20T22:52:26.097Z,31.60
2023-01-20T22:54:54.142Z,26.57
2023-01-20T22:57:22.271Z,27.63
2023-01-20T22:59:50.450Z,28.20
2023-01-20T23:02:18.364Z,28.30
2023-01-20T23:04:46.439Z,25.10
2023-01-20T23:07:14.927Z,32.90
2023-01-20T23:09:45.647Z,27.97
2023-01-20T23:12:13.630Z,28.30
2023-01-20T23:17:23.935Z,29.60
2023-01-20T23:19:51.911Z,27.20
2023-01-20T23:22:19.968Z,30.97
2023-01-20T23:24:49.304Z,28.17
